createdAt,value
2018-09-22T00:00:13.809Z,1012.59
2018-09-22T00:01:13.789Z,1012.55
2018-09-22T00:02:13.786Z,1012.56
2018-09-22T00:03:13.787Z,1012.54
2018-09-22T00:04:13.772Z,1012.55
2018-09-22T00:05:13.785Z,1012.53
2018-09-22T00:06:13.781Z,1012.51
2018-09-22T00:07:13.779Z,1012.51
2018-09-22T00:08:13.752Z,1012.51
2018-09-22T00:09:13.776Z,1012.56
2018-09-22T00:10:13.741Z,1012.61
2018-09-22T00:11:13.737Z,1012.63
2018-09-22T00:12:13.754Z,1012.60
2018-09-22T00:13:13.740Z,1012.65
2018-09-22T00:14:13.737Z,1012.64
2018-09-22T00:15:13.736Z,1012.62
2018-09-22T00:16:13.715Z,1012.66
2018-09-22T00:17:13.713Z,1012.66
2018-09-22T00:18:13.721Z,1012.68
2018-09-22T00:19:13.706Z,1012.70
2018-09-22T00:20:13.710Z,1012.75
2018-09-22T00:21:13.700Z,1012.75
2018-09-22T00:22:13.697Z,1012.77
2018-09-22T00:23:13.689Z,1012.77
2018-09-22T00:24:13.687Z,1012.75
2018-09-22T00:25:13.678Z,1012.75
2018-09-22T00:26:13.677Z,1012.76
2018-09-22T00:27:13.686Z,1012.75
2018-09-22T00:28:13.650Z,1012.83
2018-09-22T00:29:13.655Z,1012.83
2018-09-22T00:30:13.664Z,1012.83
2018-09-22T00:31:13.633Z,1012.85
2018-09-22T00:32:13.667Z,1012.85
2018-09-22T00:33:13.639Z,1012.91
2018-09-22T00:34:13.644Z,1012.94
2018-09-22T00:35:13.624Z,1012.91
2018-09-22T00:36:13.629Z,1012.91
2018-09-22T00:37:13.608Z,1012.97
2018-09-22T00:38:13.616Z,1012.94
2018-09-22T00:39:13.614Z,1012.95
2018-09-22T00:40:13.598Z,1012.95
2018-09-22T00:41:14.444Z,1012.95
2018-09-22T00:42:13.597Z,1012.93
2018-09-22T00:43:13.591Z,1012.93
2018-09-22T00:44:13.576Z,1012.91
2018-09-22T00:45:13.585Z,1012.90
2018-09-22T00:46:13.582Z,1012.86
2018-09-22T00:47:13.559Z,1012.91
2018-09-22T00:48:13.567Z,1012.88
2018-09-22T00:49:13.547Z,1012.89
2018-09-22T00:50:13.564Z,1012.93
2018-09-22T00:51:13.580Z,1012.98
2018-09-22T00:52:13.553Z,1012.99
2018-09-22T00:53:13.555Z,1013.07
2018-09-22T00:54:13.544Z,1013.04
2018-09-22T00:55:13.537Z,1013.01
2018-09-22T00:56:13.524Z,1013.04
2018-09-22T00:57:13.530Z,1013.06
2018-09-22T00:58:13.510Z,1013.05
2018-09-22T00:59:13.522Z,1013.02
2018-09-22T01:00:13.532Z,1013.04
2018-09-22T01:01:13.537Z,1013.07
2018-09-22T01:02:13.507Z,1013.07
2018-09-22T01:03:13.501Z,1013.13
2018-09-22T01:04:13.497Z,1013.11
2018-09-22T01:05:13.493Z,1013.15
2018-09-22T01:06:13.500Z,1013.11
2018-09-22T01:07:13.507Z,1013.12
2018-09-22T01:08:13.487Z,1013.10
2018-09-22T01:09:13.476Z,1013.09
2018-09-22T01:10:13.451Z,1013.11
2018-09-22T01:11:13.454Z,1013.11
2018-09-22T01:12:13.446Z,1013.15
2018-09-22T01:13:13.429Z,1013.12
2018-09-22T01:14:13.440Z,1013.18
2018-09-22T01:15:13.431Z,1013.13
2018-09-22T01:16:13.431Z,1013.11
2018-09-22T01:17:13.423Z,1013.09
2018-09-22T01:18:13.425Z,1013.04
2018-09-22T01:19:13.445Z,1013.07
2018-09-22T01:20:13.422Z,1013.04
2018-09-22T01:21:13.417Z,1013.12
2018-09-22T01:22:13.415Z,1013.12
2018-09-22T01:23:13.397Z,1013.17
2018-09-22T01:24:13.381Z,1013.17
2018-09-22T01:25:13.382Z,1013.20
2018-09-22T01:26:13.394Z,1013.19
2018-09-22T01:27:13.374Z,1013.15
2018-09-22T01:28:13.371Z,1013.19
2018-09-22T01:29:13.377Z,1013.17
2018-09-22T01:30:13.367Z,1013.21
2018-09-22T01:31:13.965Z,1013.16
2018-09-22T01:32:13.360Z,1013.22
2018-09-22T01:33:13.334Z,1013.27
2018-09-22T01:34:13.342Z,1013.33
2018-09-22T01:35:13.333Z,1013.43
2018-09-22T01:36:13.344Z,1013.39
2018-09-22T01:37:13.327Z,1013.43
2018-09-22T01:38:13.321Z,1013.44
2018-09-22T01:39:13.323Z,1013.43
2018-09-22T01:40:13.324Z,1013.42
2018-09-22T01:41:13.313Z,1013.44
2018-09-22T01:42:13.294Z,1013.47
2018-09-22T01:43:13.284Z,1013.42
2018-09-22T01:44:13.287Z,1013.46
2018-09-22T01:45:13.282Z,1013.44
2018-09-22T01:46:13.282Z,1013.45
2018-09-22T01:47:13.291Z,1013.41
2018-09-22T01:48:13.276Z,1013.43
2018-09-22T01:49:13.962Z,1013.47
2018-09-22T01:50:13.268Z,1013.46
2018-09-22T01:51:13.258Z,1013.52
2018-09-22T01:52:13.265Z,1013.56
2018-09-22T01:53:13.249Z,1013.59
2018-09-22T01:54:13.239Z,1013.59
2018-09-22T01:55:13.246Z,1013.57
2018-09-22T01:56:13.222Z,1013.57
2018-09-22T01:57:13.232Z,1013.56
2018-09-22T01:58:13.232Z,1013.61
2018-09-22T01:59:13.236Z,1013.59
2018-09-22T02:00:13.224Z,1013.55
2018-09-22T02:01:13.231Z,1013.57
2018-09-22T02:02:13.201Z,1013.57
2018-09-22T02:03:13.194Z,1013.55
2018-09-22T02:04:13.185Z,1013.53
2018-09-22T02:05:13.187Z,1013.58
2018-09-22T02:06:13.176Z,1013.59
2018-09-22T02:07:13.160Z,1013.59
2018-09-22T02:08:13.179Z,1013.52
2018-09-22T02:09:13.174Z,1013.53
2018-09-22T02:10:13.149Z,1013.51
2018-09-22T02:11:13.157Z,1013.57
2018-09-22T02:12:13.152Z,1013.55
2018-09-22T02:13:13.135Z,1013.56
2018-09-22T02:14:13.153Z,1013.55
2018-09-22T02:15:13.168Z,1013.53
2018-09-22T02:16:13.138Z,1013.57
2018-09-22T02:17:13.135Z,1013.58
2018-09-22T02:18:13.122Z,1013.57
2018-09-22T02:19:13.111Z,1013.61
2018-09-22T02:20:13.102Z,1013.65
2018-09-22T02:21:13.989Z,1013.63
2018-09-22T02:22:13.101Z,1013.69
2018-09-22T02:23:13.110Z,1013.72
2018-09-22T02:24:13.091Z,1013.76
2018-09-22T02:25:13.089Z,1013.74
2018-09-22T02:26:13.079Z,1013.72
2018-09-22T02:27:13.081Z,1013.70
2018-09-22T02:28:13.060Z,1013.76
2018-09-22T02:29:13.055Z,1013.76
2018-09-22T02:30:13.052Z,1013.73
2018-09-22T02:31:13.059Z,1013.77
2018-09-22T02:32:13.061Z,1013.78
2018-09-22T02:33:13.041Z,1013.79
2018-09-22T02:34:13.047Z,1013.77
2018-09-22T02:35:13.017Z,1013.80
2018-09-22T02:36:13.023Z,1013.83
2018-09-22T02:37:13.017Z,1013.85
2018-09-22T02:38:13.011Z,1013.90
2018-09-22T02:39:13.024Z,1013.94
2018-09-22T02:40:13.003Z,1013.93
2018-09-22T02:41:13.005Z,1013.89
2018-09-22T02:42:12.999Z,1013.82
2018-09-22T02:43:12.989Z,1013.82
2018-09-22T02:44:13.009Z,1013.83
2018-09-22T02:45:12.973Z,1013.86
2018-09-22T02:46:12.970Z,1013.89
2018-09-22T02:47:12.960Z,1013.86
2018-09-22T02:48:12.952Z,1013.88
2018-09-22T02:49:12.960Z,1013.88
2018-09-22T02:50:12.949Z,1013.88
2018-09-22T02:51:12.943Z,1013.89
2018-09-22T02:52:12.934Z,1013.91
2018-09-22T02:53:12.946Z,1013.90
2018-09-22T02:54:12.938Z,1013.91
2018-09-22T02:55:12.934Z,1013.87
2018-09-22T02:56:12.928Z,1013.81
2018-09-22T02:57:12.933Z,1013.78
2018-09-22T02:58:12.899Z,1013.72
2018-09-22T02:59:12.904Z,1013.73
2018-09-22T03:00:12.894Z,1013.75
2018-09-22T03:01:12.891Z,1013.70
2018-09-22T03:02:12.889Z,1013.77
2018-09-22T03:03:12.874Z,1013.74
2018-09-22T03:04:12.878Z,1013.72
2018-09-22T03:05:12.878Z,1013.71
2018-09-22T03:06:12.866Z,1013.73
2018-09-22T03:07:12.861Z,1013.73
2018-09-22T03:08:12.862Z,1013.75
2018-09-22T03:09:12.857Z,1013.76
2018-09-22T03:10:12.843Z,1013.88
2018-09-22T03:11:12.846Z,1013.97
2018-09-22T03:12:12.830Z,1014.00
2018-09-22T03:13:12.820Z,1013.90
2018-09-22T03:14:12.842Z,1013.77
2018-09-22T03:15:12.846Z,1013.75
2018-09-22T03:16:13.513Z,1013.86
2018-09-22T03:17:12.816Z,1014.00
2018-09-22T03:18:12.824Z,1014.00
2018-09-22T03:19:12.804Z,1013.88
2018-09-22T03:20:12.797Z,1013.82
2018-09-22T03:21:13.529Z,1013.87
2018-09-22T03:22:12.787Z,1013.92
2018-09-22T03:23:12.785Z,1013.94
2018-09-22T03:24:12.785Z,1013.84
2018-09-22T03:25:12.769Z,1013.83
2018-09-22T03:26:12.768Z,1013.83
2018-09-22T03:27:12.749Z,1013.81
2018-09-22T03:28:12.735Z,1013.81
2018-09-22T03:29:12.752Z,1013.80
2018-09-22T03:30:12.728Z,1013.82
2018-09-22T03:31:12.731Z,1013.80
2018-09-22T03:32:12.743Z,1013.79
2018-09-22T03:33:12.727Z,1013.82
2018-09-22T03:34:12.734Z,1013.84
2018-09-22T03:35:12.717Z,1013.87
2018-09-22T03:36:12.698Z,1013.90
2018-09-22T03:37:12.701Z,1013.91
2018-09-22T03:38:12.680Z,1013.94
2018-09-22T03:39:12.704Z,1013.92
2018-09-22T03:40:12.676Z,1013.87
2018-09-22T03:41:12.674Z,1013.94
2018-09-22T03:42:12.674Z,1013.97
2018-09-22T03:43:12.659Z,1013.95
2018-09-22T03:44:12.663Z,1013.95
2018-09-22T03:45:12.665Z,1013.93
2018-09-22T03:46:12.644Z,1013.90
2018-09-22T03:47:12.651Z,1013.87
2018-09-22T03:48:12.637Z,1013.87
2018-09-22T03:49:12.646Z,1013.86
2018-09-22T03:50:12.646Z,1013.91
2018-09-22T03:51:12.620Z,1013.95
2018-09-22T03:52:12.609Z,1013.95
2018-09-22T03:53:12.610Z,1013.97
2018-09-22T03:54:12.598Z,1014.03
2018-09-22T03:55:12.601Z,1014.02
2018-09-22T03:56:12.589Z,1013.96
2018-09-22T03:57:12.601Z,1013.96
2018-09-22T03:58:12.586Z,1013.94
2018-09-22T03:59:12.589Z,1013.97
2018-09-22T04:00:12.587Z,1013.93
2018-09-22T04:01:12.576Z,1013.89
2018-09-22T04:02:12.556Z,1013.91
2018-09-22T04:03:12.568Z,1013.93
2018-09-22T04:04:12.550Z,1013.91
2018-09-22T04:05:12.557Z,1013.99
2018-09-22T04:06:12.551Z,1013.98
2018-09-22T04:07:12.545Z,1013.96
2018-09-22T04:08:12.537Z,1013.98
2018-09-22T04:09:12.517Z,1013.95
2018-09-22T04:10:12.516Z,1013.88
2018-09-22T04:11:12.524Z,1013.92
2018-09-22T04:12:12.514Z,1013.95
2018-09-22T04:13:12.496Z,1013.96
2018-09-22T04:14:12.521Z,1013.99
2018-09-22T04:15:12.502Z,1013.97
2018-09-22T04:16:12.482Z,1014.02
2018-09-22T04:17:12.493Z,1014.04
2018-09-22T04:18:12.476Z,1014.00
2018-09-22T04:19:12.477Z,1014.03
2018-09-22T04:20:12.469Z,1014.06
2018-09-22T04:21:12.464Z,1014.07
2018-09-22T04:22:12.461Z,1014.07
2018-09-22T04:23:12.461Z,1014.09
2018-09-22T04:24:12.460Z,1014.12
2018-09-22T04:25:12.439Z,1014.10
2018-09-22T04:26:12.432Z,1014.12
2018-09-22T04:27:13.059Z,1014.10
2018-09-22T04:28:13.051Z,1014.07
2018-09-22T04:29:12.432Z,1014.08
2018-09-22T04:30:12.423Z,1014.05
2018-09-22T04:31:12.417Z,1014.10
2018-09-22T04:32:12.415Z,1014.15
2018-09-22T04:33:12.433Z,1014.13
2018-09-22T04:34:12.380Z,1014.16
2018-09-22T04:35:12.387Z,1014.17
2018-09-22T04:36:12.378Z,1014.21
2018-09-22T04:37:12.385Z,1014.21
2018-09-22T04:38:12.381Z,1014.25
2018-09-22T04:39:12.361Z,1014.27
2018-09-22T04:40:12.351Z,1014.31
2018-09-22T04:41:12.348Z,1014.27
2018-09-22T04:42:12.349Z,1014.27
2018-09-22T04:43:12.337Z,1014.25
2018-09-22T04:44:12.327Z,1014.27
2018-09-22T04:45:12.334Z,1014.32
2018-09-22T04:46:12.331Z,1014.31
2018-09-22T04:47:12.334Z,1014.35
2018-09-22T04:48:12.305Z,1014.37
2018-09-22T04:49:12.301Z,1014.35
2018-09-22T04:50:12.305Z,1014.33
2018-09-22T04:51:12.304Z,1014.34
2018-09-22T04:52:12.296Z,1014.36
2018-09-22T04:53:12.287Z,1014.33
2018-09-22T04:54:12.277Z,1014.31
2018-09-22T04:55:12.270Z,1014.34
2018-09-22T04:56:12.264Z,1014.31
2018-09-22T04:57:12.272Z,1014.34
2018-09-22T04:58:12.258Z,1014.34
2018-09-22T04:59:12.264Z,1014.33
2018-09-22T05:00:12.259Z,1014.37
2018-09-22T05:01:12.253Z,1014.39
2018-09-22T05:02:12.240Z,1014.41
2018-09-22T05:03:12.222Z,1014.42
2018-09-22T05:04:12.231Z,1014.46
2018-09-22T05:05:12.238Z,1014.47
2018-09-22T05:06:12.209Z,1014.51
2018-09-22T05:07:12.225Z,1014.52
2018-09-22T05:08:12.205Z,1014.49
2018-09-22T05:09:12.203Z,1014.51
2018-09-22T05:10:12.191Z,1014.50
2018-09-22T05:11:12.204Z,1014.54
2018-09-22T05:12:12.198Z,1014.55
2018-09-22T05:13:12.190Z,1014.57
2018-09-22T05:14:12.177Z,1014.57
2018-09-22T05:15:12.179Z,1014.59
2018-09-22T05:16:12.169Z,1014.62
2018-09-22T05:17:12.213Z,1014.61
2018-09-22T05:18:12.168Z,1014.59
2018-09-22T05:19:12.144Z,1014.62
2018-09-22T05:20:12.146Z,1014.58
2018-09-22T05:21:12.136Z,1014.61
2018-09-22T05:22:12.128Z,1014.58
2018-09-22T05:23:12.139Z,1014.62
2018-09-22T05:24:12.121Z,1014.69
2018-09-22T05:25:12.119Z,1014.70
2018-09-22T05:26:12.110Z,1014.72
2018-09-22T05:27:12.094Z,1014.71
2018-09-22T05:28:12.103Z,1014.68
2018-09-22T05:29:12.088Z,1014.73
2018-09-22T05:30:12.106Z,1014.80
2018-09-22T05:31:12.077Z,1014.78
2018-09-22T05:32:12.076Z,1014.81
2018-09-22T05:33:12.068Z,1014.81
2018-09-22T05:34:12.080Z,1014.85
2018-09-22T05:35:12.063Z,1014.82
2018-09-22T05:36:12.055Z,1014.76
2018-09-22T05:37:12.055Z,1014.75
2018-09-22T05:38:12.058Z,1014.80
2018-09-22T05:39:12.040Z,1014.82
2018-09-22T05:40:12.047Z,1014.83
2018-09-22T05:41:12.033Z,1014.82
2018-09-22T05:42:12.035Z,1014.86
2018-09-22T05:43:12.017Z,1014.89
2018-09-22T05:44:12.020Z,1014.92
2018-09-22T05:45:12.031Z,1014.93
2018-09-22T05:46:12.005Z,1014.96
2018-09-22T05:47:11.996Z,1015.01
2018-09-22T05:48:11.989Z,1015.08
2018-09-22T05:49:12.013Z,1015.13
2018-09-22T05:50:12.017Z,1015.15
2018-09-22T05:51:11.994Z,1015.17
2018-09-22T05:52:11.970Z,1015.17
2018-09-22T05:53:11.976Z,1015.14
2018-09-22T05:54:11.954Z,1015.13
2018-09-22T05:55:11.969Z,1015.05
2018-09-22T05:56:11.967Z,1015.03
2018-09-22T05:57:11.949Z,1015.04
2018-09-22T05:58:11.997Z,1015.11
2018-09-22T05:59:11.936Z,1015.13
2018-09-22T06:00:11.926Z,1015.18
2018-09-22T06:01:11.937Z,1015.20
2018-09-22T06:02:11.932Z,1015.22
2018-09-22T06:03:11.924Z,1015.13
2018-09-22T06:04:11.923Z,1015.09
2018-09-22T06:05:11.902Z,1015.09
2018-09-22T06:06:11.903Z,1015.05
2018-09-22T06:07:11.891Z,1015.07
2018-09-22T06:08:11.896Z,1015.06
2018-09-22T06:09:11.916Z,1015.06
2018-09-22T06:10:11.884Z,1015.04
2018-09-22T06:11:11.860Z,1014.98
2018-09-22T06:12:11.878Z,1015.04
2018-09-22T06:13:11.859Z,1015.02
2018-09-22T06:14:11.867Z,1015.03
2018-09-22T06:15:11.851Z,1015.00
2018-09-22T06:16:11.847Z,1015.04
2018-09-22T06:17:11.841Z,1015.03
2018-09-22T06:18:11.836Z,1015.02
2018-09-22T06:19:11.846Z,1015.01
2018-09-22T06:20:11.832Z,1015.02
2018-09-22T06:21:11.833Z,1015.04
2018-09-22T06:22:11.847Z,1015.04
2018-09-22T06:23:11.888Z,1014.97
2018-09-22T06:24:11.821Z,1015.03
2018-09-22T06:25:11.820Z,1015.09
2018-09-22T06:26:11.811Z,1015.10
2018-09-22T06:27:11.791Z,1015.13
2018-09-22T06:28:11.792Z,1015.17
2018-09-22T06:29:11.800Z,1015.17
2018-09-22T06:30:11.795Z,1015.20
2018-09-22T06:31:11.789Z,1015.22
2018-09-22T06:32:11.775Z,1015.23
2018-09-22T06:33:11.765Z,1015.21
2018-09-22T06:34:11.769Z,1015.22
2018-09-22T06:35:11.805Z,1015.15
2018-09-22T06:36:11.758Z,1015.12
2018-09-22T06:37:11.758Z,1015.05
2018-09-22T06:38:11.739Z,1015.08
2018-09-22T06:39:11.727Z,1015.06
2018-09-22T06:40:11.732Z,1014.99
2018-09-22T06:41:11.742Z,1014.95
2018-09-22T06:42:11.734Z,1014.94
2018-09-22T06:43:11.717Z,1014.92
2018-09-22T06:44:11.711Z,1014.93
2018-09-22T06:45:11.732Z,1014.90
2018-09-22T06:46:11.743Z,1014.89
2018-09-22T06:47:11.717Z,1014.89
2018-09-22T06:48:11.716Z,1014.89
2018-09-22T06:49:11.694Z,1014.86
2018-09-22T06:50:11.690Z,1014.85
2018-09-22T06:51:11.689Z,1014.85
2018-09-22T06:52:11.703Z,1014.87
2018-09-22T06:53:11.672Z,1014.86
2018-09-22T06:54:11.670Z,1014.87
2018-09-22T06:55:11.683Z,1014.91
2018-09-22T06:56:11.670Z,1014.92
2018-09-22T06:57:11.671Z,1014.95
2018-09-22T06:58:11.663Z,1014.91
2018-09-22T06:59:11.674Z,1014.90
2018-09-22T07:00:11.683Z,1014.92
2018-09-22T07:01:11.664Z,1014.95
2018-09-22T07:02:11.712Z,1014.93
2018-09-22T07:03:11.732Z,1014.95
2018-09-22T07:04:11.646Z,1014.96
2018-09-22T07:05:11.618Z,1014.95
2018-09-22T07:06:11.705Z,1014.99
2018-09-22T07:07:11.640Z,1015.06
2018-09-22T07:08:11.614Z,1015.15
2018-09-22T07:09:11.636Z,1015.17
2018-09-22T07:10:11.619Z,1015.28
2018-09-22T07:11:11.614Z,1015.22
2018-09-22T07:12:11.613Z,1015.22
2018-09-22T07:13:11.699Z,1015.27
2018-09-22T07:14:11.644Z,1015.21
2018-09-22T07:15:11.697Z,1015.16
2018-09-22T07:16:12.699Z,1015.12
2018-09-22T07:17:11.603Z,1015.07
2018-09-22T07:18:11.600Z,1015.06
2018-09-22T07:19:11.580Z,1015.06
2018-09-22T07:20:11.733Z,1015.10
2018-09-22T07:21:11.576Z,1015.10
2018-09-22T07:22:11.584Z,1015.14
2018-09-22T07:23:11.558Z,1015.14
2018-09-22T07:24:11.568Z,1015.20
2018-09-22T07:25:11.583Z,1015.22
2018-09-22T07:26:11.577Z,1015.21
2018-09-22T07:27:11.565Z,1015.25
2018-09-22T07:28:11.556Z,1015.29
2018-09-22T07:29:11.550Z,1015.30
2018-09-22T07:30:11.548Z,1015.28
2018-09-22T07:31:11.550Z,1015.31
2018-09-22T07:32:11.541Z,1015.29
2018-09-22T07:33:11.551Z,1015.34
2018-09-22T07:34:11.551Z,1015.35
2018-09-22T07:35:11.537Z,1015.39
2018-09-22T07:36:11.535Z,1015.38
2018-09-22T07:37:11.547Z,1015.38
2018-09-22T07:38:11.540Z,1015.43
2018-09-22T07:39:11.520Z,1015.44
2018-09-22T07:40:11.529Z,1015.44
2018-09-22T07:41:11.531Z,1015.45
2018-09-22T07:42:11.523Z,1015.41
2018-09-22T07:43:11.501Z,1015.43
2018-09-22T07:44:11.504Z,1015.46
2018-09-22T07:45:11.519Z,1015.46
2018-09-22T07:46:11.498Z,1015.50
2018-09-22T07:47:11.492Z,1015.48
2018-09-22T07:48:11.503Z,1015.56
2018-09-22T07:49:11.509Z,1015.61
2018-09-22T07:50:11.485Z,1015.56
2018-09-22T07:51:11.485Z,1015.62
2018-09-22T07:52:11.501Z,1015.59
2018-09-22T07:53:11.487Z,1015.63
2018-09-22T07:54:11.466Z,1015.68
2018-09-22T07:55:11.477Z,1015.65
2018-09-22T07:56:11.476Z,1015.67
2018-09-22T07:57:12.209Z,1015.64
2018-09-22T07:58:11.480Z,1015.63
2018-09-22T07:59:11.462Z,1015.65
2018-09-22T08:00:11.495Z,1015.67
2018-09-22T08:01:11.457Z,1015.64
2018-09-22T08:02:11.477Z,1015.66
2018-09-22T08:03:11.470Z,1015.71
2018-09-22T08:04:11.472Z,1015.61
2018-09-22T08:05:11.462Z,1015.54
2018-09-22T08:06:11.467Z,1015.51
2018-09-22T08:07:11.471Z,1015.53
2018-09-22T08:08:11.461Z,1015.54
2018-09-22T08:09:11.455Z,1015.54
2018-09-22T08:10:11.456Z,1015.52
2018-09-22T08:11:11.445Z,1015.55
2018-09-22T08:12:11.458Z,1015.55
2018-09-22T08:13:11.433Z,1015.51
2018-09-22T08:14:11.443Z,1015.53
2018-09-22T08:15:11.438Z,1015.49
2018-09-22T08:16:12.178Z,1015.43
2018-09-22T08:17:11.448Z,1015.40
2018-09-22T08:18:11.446Z,1015.51
2018-09-22T08:19:11.443Z,1015.56
2018-09-22T08:20:11.444Z,1015.61
2018-09-22T08:21:11.433Z,1015.64
2018-09-22T08:22:11.441Z,1015.64
2018-09-22T08:23:11.433Z,1015.66
2018-09-22T08:24:11.431Z,1015.63
2018-09-22T08:25:11.459Z,1015.65
2018-09-22T08:26:11.424Z,1015.65
2018-09-22T08:27:12.165Z,1015.70
2018-09-22T08:28:11.431Z,1015.74
2018-09-22T08:29:11.428Z,1015.78
2018-09-22T08:30:11.429Z,1015.81
2018-09-22T08:31:11.432Z,1015.83
2018-09-22T08:32:11.409Z,1015.83
2018-09-22T08:33:11.427Z,1015.83
2018-09-22T08:34:11.426Z,1015.81
2018-09-22T08:35:11.422Z,1015.85
2018-09-22T08:36:11.472Z,1015.81
2018-09-22T08:37:11.531Z,1015.81
2018-09-22T08:38:11.419Z,1015.78
2018-09-22T08:39:11.446Z,1015.73
2018-09-22T08:40:11.417Z,1015.73
2018-09-22T08:41:11.426Z,1015.65
2018-09-22T08:42:11.411Z,1015.60
2018-09-22T08:43:11.406Z,1015.61
2018-09-22T08:44:11.412Z,1015.62
2018-09-22T08:45:12.185Z,1015.60
2018-09-22T08:46:11.419Z,1015.56
2018-09-22T08:47:11.420Z,1015.54
2018-09-22T08:48:14.194Z,1015.49
2018-09-22T08:49:11.405Z,1015.49
2018-09-22T08:50:11.475Z,1015.49
2018-09-22T08:51:11.483Z,1015.46
2018-09-22T08:52:11.425Z,1015.50
2018-09-22T08:53:11.409Z,1015.50
2018-09-22T08:54:11.419Z,1015.52
2018-09-22T08:55:11.406Z,1015.58
2018-09-22T08:56:11.399Z,1015.60
2018-09-22T08:57:11.452Z,1015.59
2018-09-22T08:58:11.414Z,1015.66
2018-09-22T08:59:11.422Z,1015.64
2018-09-22T09:00:11.424Z,1015.62
2018-09-22T09:01:11.415Z,1015.61
2018-09-22T09:02:11.423Z,1015.56
2018-09-22T09:03:11.414Z,1015.57
2018-09-22T09:04:11.426Z,1015.53
2018-09-22T09:05:11.427Z,1015.52
2018-09-22T09:06:11.408Z,1015.51
2018-09-22T09:07:12.201Z,1015.43
2018-09-22T09:08:11.408Z,1015.39
2018-09-22T09:09:11.404Z,1015.35
2018-09-22T09:10:11.402Z,1015.28
2018-09-22T09:11:11.420Z,1015.30
2018-09-22T09:12:11.421Z,1015.32
2018-09-22T09:13:11.412Z,1015.38
2018-09-22T09:14:11.486Z,1015.43
2018-09-22T09:15:11.418Z,1015.40
2018-09-22T09:16:11.430Z,1015.36
2018-09-22T09:17:11.495Z,1015.36
2018-09-22T09:18:11.429Z,1015.29
2018-09-22T09:19:11.416Z,1015.23
2018-09-22T09:20:11.422Z,1015.19
2018-09-22T09:21:11.413Z,1015.17
2018-09-22T09:22:12.205Z,1015.17
2018-09-22T09:23:11.417Z,1015.23
2018-09-22T09:24:12.217Z,1015.28
2018-09-22T09:25:12.016Z,1015.28
2018-09-22T09:26:11.438Z,1015.31
2018-09-22T09:27:11.427Z,1015.33
2018-09-22T09:28:11.433Z,1015.29
2018-09-22T09:29:11.434Z,1015.33
2018-09-22T09:30:12.212Z,1015.33
2018-09-22T09:31:11.422Z,1015.35
2018-09-22T09:32:11.416Z,1015.39
2018-09-22T09:33:11.417Z,1015.47
2018-09-22T09:34:11.427Z,1015.47
2018-09-22T09:35:11.424Z,1015.46
2018-09-22T09:36:11.480Z,1015.42
2018-09-22T09:37:11.427Z,1015.44
2018-09-22T09:38:11.426Z,1015.44
2018-09-22T09:39:11.411Z,1015.37
2018-09-22T09:40:11.443Z,1015.43
2018-09-22T09:41:11.437Z,1015.36
2018-09-22T09:42:11.415Z,1015.34
2018-09-22T09:43:11.553Z,1015.41
2018-09-22T09:44:12.216Z,1015.31
2018-09-22T09:45:11.445Z,1015.28
2018-09-22T09:46:11.436Z,1015.23
2018-09-22T09:47:11.417Z,1015.17
2018-09-22T09:48:12.219Z,1015.15
2018-09-22T09:49:11.441Z,1015.13
2018-09-22T09:50:11.423Z,1015.06
2018-09-22T09:51:11.427Z,1015.01
2018-09-22T09:52:11.440Z,1014.99
2018-09-22T09:53:11.458Z,1014.98
2018-09-22T09:54:11.412Z,1014.94
2018-09-22T09:55:11.431Z,1014.91
2018-09-22T09:56:11.423Z,1014.88
2018-09-22T09:57:11.419Z,1014.91
2018-09-22T09:58:11.431Z,1014.97
2018-09-22T09:59:11.425Z,1014.94
2018-09-22T10:00:11.425Z,1014.91
2018-09-22T10:01:11.422Z,1014.83
2018-09-22T10:02:11.426Z,1014.81
2018-09-22T10:03:11.435Z,1014.84
2018-09-22T10:04:11.416Z,1014.81
2018-09-22T10:05:11.428Z,1014.76
2018-09-22T10:06:11.436Z,1014.77
2018-09-22T10:07:11.435Z,1014.75
2018-09-22T10:08:12.243Z,1014.75
2018-09-22T10:09:11.421Z,1014.74
2018-09-22T10:10:11.434Z,1014.69
2018-09-22T10:11:11.435Z,1014.72
2018-09-22T10:12:11.430Z,1014.75
2018-09-22T10:13:11.430Z,1014.71
2018-09-22T10:14:11.435Z,1014.75
2018-09-22T10:15:11.433Z,1014.70
2018-09-22T10:16:11.434Z,1014.64
2018-09-22T10:17:11.424Z,1014.62
2018-09-22T10:18:11.444Z,1014.63
2018-09-22T10:19:11.430Z,1014.63
2018-09-22T10:20:11.438Z,1014.63
2018-09-22T10:21:11.445Z,1014.64
2018-09-22T10:22:11.440Z,1014.64
2018-09-22T10:23:11.438Z,1014.70
2018-09-22T10:24:11.447Z,1014.71
2018-09-22T10:25:11.422Z,1014.75
2018-09-22T10:26:11.436Z,1014.74
2018-09-22T10:27:11.421Z,1014.71
2018-09-22T10:28:11.471Z,1014.70
2018-09-22T10:29:12.257Z,1014.67
2018-09-22T10:30:11.424Z,1014.62
2018-09-22T10:31:11.442Z,1014.56
2018-09-22T10:32:11.420Z,1014.60
2018-09-22T10:33:11.447Z,1014.59
2018-09-22T10:34:11.443Z,1014.60
2018-09-22T10:35:11.439Z,1014.54
2018-09-22T10:36:11.451Z,1014.52
2018-09-22T10:37:11.448Z,1014.50
2018-09-22T10:38:11.445Z,1014.46
2018-09-22T10:39:11.456Z,1014.48
2018-09-22T10:40:11.426Z,1014.45
2018-09-22T10:41:11.453Z,1014.43
2018-09-22T10:42:11.457Z,1014.43
2018-09-22T10:43:11.454Z,1014.42
2018-09-22T10:44:11.467Z,1014.43
2018-09-22T10:45:11.452Z,1014.45
2018-09-22T10:46:11.457Z,1014.44
2018-09-22T10:47:11.446Z,1014.47
2018-09-22T10:48:11.447Z,1014.42
2018-09-22T10:49:11.442Z,1014.44
2018-09-22T10:50:11.467Z,1014.40
2018-09-22T10:51:11.466Z,1014.36
2018-09-22T10:52:11.471Z,1014.40
2018-09-22T10:53:11.467Z,1014.39
2018-09-22T10:54:11.445Z,1014.43
2018-09-22T10:55:11.468Z,1014.46
2018-09-22T10:56:11.471Z,1014.37
2018-09-22T10:57:11.459Z,1014.33
2018-09-22T10:58:11.461Z,1014.34
2018-09-22T10:59:11.465Z,1014.27
2018-09-22T11:00:11.455Z,1014.33
2018-09-22T11:01:11.495Z,1014.33
2018-09-22T11:02:11.470Z,1014.38
2018-09-22T11:03:11.524Z,1014.32
2018-09-22T11:04:11.473Z,1014.34
2018-09-22T11:05:11.477Z,1014.34
2018-09-22T11:06:12.274Z,1014.35
2018-09-22T11:07:11.469Z,1014.39
2018-09-22T11:08:11.490Z,1014.32
2018-09-22T11:09:11.485Z,1014.31
2018-09-22T11:10:11.513Z,1014.31
2018-09-22T11:11:11.497Z,1014.28
2018-09-22T11:12:11.496Z,1014.23
2018-09-22T11:13:11.489Z,1014.27
2018-09-22T11:14:11.509Z,1014.27
2018-09-22T11:15:11.505Z,1014.25
2018-09-22T11:16:11.507Z,1014.23
2018-09-22T11:17:11.519Z,1014.28
2018-09-22T11:18:11.498Z,1014.33
2018-09-22T11:19:11.507Z,1014.31
2018-09-22T11:20:11.498Z,1014.39
2018-09-22T11:21:11.517Z,1014.31
2018-09-22T11:22:11.521Z,1014.33
2018-09-22T11:23:11.503Z,1014.36
2018-09-22T11:24:11.515Z,1014.30
2018-09-22T11:25:11.524Z,1014.29
2018-09-22T11:26:11.530Z,1014.27
2018-09-22T11:27:11.525Z,1014.27
2018-09-22T11:28:11.533Z,1014.31
2018-09-22T11:29:11.545Z,1014.31
2018-09-22T11:30:11.541Z,1014.24
2018-09-22T11:31:11.539Z,1014.25
2018-09-22T11:32:11.554Z,1014.23
2018-09-22T11:33:11.543Z,1014.20
2018-09-22T11:34:11.551Z,1014.21
2018-09-22T11:35:12.279Z,1014.19
2018-09-22T11:36:11.557Z,1014.18
2018-09-22T11:37:11.551Z,1014.14
2018-09-22T11:38:11.579Z,1014.17
2018-09-22T11:39:11.552Z,1014.13
2018-09-22T11:40:11.563Z,1014.11
2018-09-22T11:41:11.565Z,1014.09
2018-09-22T11:42:11.588Z,1014.02
2018-09-22T11:43:11.555Z,1013.98
2018-09-22T11:44:11.562Z,1013.96
2018-09-22T11:45:11.556Z,1013.85
2018-09-22T11:46:11.584Z,1013.91
2018-09-22T11:47:11.573Z,1013.92
2018-09-22T11:48:11.557Z,1013.86
2018-09-22T11:49:11.596Z,1013.87
2018-09-22T11:50:12.311Z,1013.89
2018-09-22T11:51:11.561Z,1013.87
2018-09-22T11:52:12.317Z,1013.89
2018-09-22T11:53:12.302Z,1013.84
2018-09-22T11:54:11.585Z,1013.86
2018-09-22T11:55:11.584Z,1013.81
2018-09-22T11:56:11.577Z,1013.84
2018-09-22T11:57:11.582Z,1013.78
2018-09-22T11:58:11.565Z,1013.77
2018-09-22T11:59:11.597Z,1013.85
2018-09-22T12:00:11.594Z,1013.82
2018-09-22T12:01:11.579Z,1013.75
2018-09-22T12:02:11.579Z,1013.68
2018-09-22T12:03:11.597Z,1013.72
2018-09-22T12:04:11.607Z,1013.76
2018-09-22T12:05:11.594Z,1013.77